map of ECP home
ECP - Airport
Location
City:  Panama City, Florida, United States
Near (Alt.):Panama City Beach
Name:Northwest Florida Beaches International Airport
ICAO:KECP
IATA:ECP
FAA LID:ECP

Details
Type:Airport (Part 139 Class I)
Use:Public/Civil, International (customs port of entry)
Latitude:3021'30"N (30.358250)
Longitude:8547'44"W (-85.795610)
Datum:WGS 1984
Elevation:68 ft (21 m)
Variation:3.83W (WMM2015 magnetic declination)
-0.10 annual change
Runways:1
Longest:10000 × 150 ft (3048 × 45.5 m), paved

Time
Time Zone:UTC-5 (DST-4)
Local Time:

Weather
METAR:KECP 210653Z AUTO 34008KT 10SM CLR 08/06 A3021 RMK AO2 SLP242 T00780061
TAF:KECP 210520Z 2106/2206 35006KT P6SM SKC

Related Locations
Nearby:
Farthest:USL: 11241 mi / 18091 km
Useless Loop, WA, AU

Find:

   beyond  
but within

Other Information
Maps:
NOTAMs:
Links:
Sources:

  
  • flag of United States
  • flag of Florida
  

Airport Diagram

Airport diagram for ECP

Airport diagram PDF

Sectional Chart

Flight Planning
at skyvector.com

Satellite Image

Google Maps Satellite view

 

Copyright © 2004-2018 Karl L. Swartz. All rights reserved.
The Great Circle Mapper name and logo are trademarks of the Great Circle Mapper.
All other trademarks mentioned herein belong to their respective owners.
Please see credits for attibutions and further copyright information.

  Follow gcmap on Facebook Follow gcmap on Twitter Follow gcmap on Google+ GCmap on LinkedIn

hCard Microformat

Geo Microformat